Time;durP1;ratioP1;P1;durP2;ratioP2;P2;SDS_P1;SDS_P2;PMS_P1;PMS_P2;Temp;Humidity;BMP_temperature;BMP_pressure;BME280_temperature;BME280_humidity;BME280_pressure;Samples;Min_cycle;Max_cycle;Signal;HPM_P1;HPM_P2
2023/08/18 00:01:31;;;;;;;11.23;5.10;;;19.80;78.20;;;;;;4958493;28;20046;-94
2023/08/18 00:03:58;;;;;;;11.07;5.40;;;19.80;78.10;;;;;;4958596;28;20054;-92
2023/08/18 00:06:25;;;;;;;10.20;5.53;;;19.70;78.20;;;;;;4958659;28;20047;-93
2023/08/18 00:08:52;;;;;;;10.20;5.33;;;19.60;78.70;;;;;;4942865;28;20501;-92
2023/08/18 00:11:19;;;;;;;10.15;5.35;;;19.50;79.00;;;;;;4958512;28;20046;-93
2023/08/18 00:13:46;;;;;;;11.18;5.25;;;19.50;78.90;;;;;;4942587;28;20050;-93
2023/08/18 00:16:13;;;;;;;12.40;5.60;;;19.50;78.70;;;;;;4958562;28;20094;-92
2023/08/18 00:18:41;;;;;;;9.45;5.22;;;19.50;78.70;;;;;;4958682;28;20047;-93
2023/08/18 00:21:08;;;;;;;12.63;5.40;;;19.50;78.90;;;;;;4958563;28;20047;-93
2023/08/18 00:23:35;;;;;;;10.13;5.47;;;19.50;79.00;;;;;;4958214;28;20050;-94
2023/08/18 00:26:03;;;;;;;10.10;5.10;;;19.40;79.00;;;;;;4958794;28;20068;-92
2023/08/18 00:28:30;;;;;;;9.75;5.10;;;19.40;79.20;;;;;;4958434;28;20046;-93
2023/08/18 00:30:57;;;;;;;10.57;5.95;;;19.40;79.10;;;;;;4958180;28;20066;-92
2023/08/18 00:33:25;;;;;;;10.40;5.10;;;19.40;78.90;;;;;;4942723;28;20039;-93
2023/08/18 00:35:53;;;;;;;10.20;5.78;;;19.50;79.00;;;;;;4958211;28;20410;-93
2023/08/18 00:38:20;;;;;;;10.23;5.55;;;19.40;79.10;;;;;;4958508;28;20051;-92
2023/08/18 00:40:47;;;;;;;10.27;5.55;;;19.40;78.80;;;;;;4958203;28;20121;-92
2023/08/18 00:43:14;;;;;;;9.60;5.30;;;19.30;79.30;;;;;;4942044;28;20046;-92
2023/08/18 00:45:42;;;;;;;10.83;6.17;;;19.30;79.40;;;;;;4958378;28;20068;-92
2023/08/18 00:48:09;;;;;;;10.80;5.07;;;19.30;79.40;;;;;;4958147;28;20051;-92
2023/08/18 00:50:37;;;;;;;12.40;5.63;;;19.30;79.50;;;;;;4958011;28;20054;-93
2023/08/18 00:53:04;;;;;;;10.50;6.00;;;19.30;79.20;;;;;;4959171;28;20086;-93
2023/08/18 00:55:31;;;;;;;10.45;5.10;;;19.30;79.00;;;;;;4961941;28;20057;-93
2023/08/18 00:58:01;;;;;;;10.33;5.10;;;19.40;79.00;;;;;;4961789;28;20050;-93
2023/08/18 01:00:29;;;;;;;10.65;5.90;;;19.40;78.80;;;;;;4961903;28;20078;-92
2023/08/18 01:02:57;;;;;;;11.02;6.03;;;19.40;79.00;;;;;;4961838;28;20046;-93
2023/08/18 01:05:24;;;;;;;11.95;5.90;;;19.30;79.20;;;;;;4961672;28;20153;-93
2023/08/18 01:07:51;;;;;;;11.82;5.68;;;19.30;79.10;;;;;;4945934;28;20463;-93
2023/08/18 01:10:20;;;;;;;8.87;4.80;;;19.30;79.20;;;;;;4961935;28;20046;-93
2023/08/18 01:13:10;;;;;;;10.55;5.05;;;19.30;79.10;;;;;;4961747;28;20051;-93
2023/08/18 01:15:41;;;;;;;11.40;5.28;;;19.30;78.80;;;;;;4961608;28;20047;-92
2023/08/18 01:18:10;;;;;;;10.32;5.60;;;19.30;78.70;;;;;;4961567;28;20047;-93
2023/08/18 01:20:38;;;;;;;11.10;5.88;;;19.40;78.60;;;;;;4945728;28;20049;-92
2023/08/18 01:23:08;;;;;;;10.83;5.60;;;19.40;78.50;;;;;;4962122;28;20071;-92
2023/08/18 01:25:35;;;;;;;9.50;5.40;;;19.30;78.50;;;;;;4961756;28;20061;-92
2023/08/18 01:28:03;;;;;;;11.25;5.13;;;19.30;78.30;;;;;;4961552;28;20398;-92
2023/08/18 01:30:46;;;;;;;8.88;4.97;;;19.30;78.10;;;;;;4961517;28;20097;-92
2023/08/18 01:33:21;;;;;;;12.25;5.93;;;19.40;78.00;;;;;;4961530;28;20054;-93
2023/08/18 01:35:52;;;;;;;15.17;5.93;;;19.30;78.20;;;;;;4961483;28;20050;-93
2023/08/18 01:38:22;;;;;;;9.88;5.60;;;19.20;78.90;;;;;;4977440;28;20505;-93
2023/08/18 01:40:51;;;;;;;11.93;6.03;;;19.10;79.30;;;;;;4961387;28;20145;-92
2023/08/18 01:43:18;;;;;;;10.88;6.13;;;19.00;79.60;;;;;;4961028;28;20047;-93
2023/08/18 01:45:45;;;;;;;11.90;5.35;;;19.00;79.90;;;;;;4961200;28;20077;-93
2023/08/18 01:48:13;;;;;;;10.20;5.80;;;19.00;80.10;;;;;;4961263;28;20101;-92
2023/08/18 01:50:40;;;;;;;12.70;5.65;;;19.00;79.80;;;;;;4961221;28;20050;-92
2023/08/18 01:53:07;;;;;;;12.65;5.57;;;19.10;79.80;;;;;;4960934;28;20089;-92
2023/08/18 01:55:34;;;;;;;9.73;5.85;;;19.10;79.60;;;;;;4961196;28;20525;-92
2023/08/18 01:58:02;;;;;;;10.95;5.90;;;19.10;79.40;;;;;;4961607;28;20070;-92
2023/08/18 02:00:29;;;;;;;11.50;5.50;;;19.10;79.30;;;;;;4960690;28;20501;-93
2023/08/18 02:02:57;;;;;;;10.80;5.80;;;19.10;79.20;;;;;;4945175;28;20047;-93
2023/08/18 02:05:25;;;;;;;11.10;5.72;;;19.10;78.90;;;;;;4960311;28;20058;-93
2023/08/18 02:07:53;;;;;;;11.00;5.63;;;19.10;78.80;;;;;;4960974;28;20512;-94
2023/08/18 02:10:20;;;;;;;10.77;5.55;;;19.10;78.90;;;;;;4960917;28;20258;-94
2023/08/18 02:12:47;;;;;;;10.90;5.67;;;19.10;78.80;;;;;;4960690;28;20145;-94
2023/08/18 02:15:14;;;;;;;10.25;5.57;;;19.10;78.60;;;;;;4960910;28;20039;-94
2023/08/18 02:17:41;;;;;;;11.48;5.45;;;19.10;78.70;;;;;;4961142;28;20043;-93
2023/08/18 02:20:09;;;;;;;8.93;5.32;;;19.00;78.70;;;;;;4944646;28;20149;-94
2023/08/18 02:22:36;;;;;;;14.23;6.03;;;19.10;78.50;;;;;;4960736;28;20059;-93
2023/08/18 02:25:04;;;;;;;9.80;6.00;;;19.00;78.70;;;;;;4960454;28;20134;-93
2023/08/18 02:27:31;;;;;;;12.00;6.28;;;19.00;78.90;;;;;;4960665;28;20057;-94
2023/08/18 02:29:58;;;;;;;11.20;5.82;;;19.00;79.00;;;;;;4960617;28;20043;-93
2023/08/18 02:32:25;;;;;;;12.13;6.10;;;19.00;79.00;;;;;;4960455;28;20047;-93
2023/08/18 02:34:52;;;;;;;12.35;5.75;;;18.90;79.10;;;;;;4960404;28;20074;-92
2023/08/18 02:37:19;;;;;;;10.17;5.67;;;18.90;79.20;;;;;;4960678;28;20043;-93
2023/08/18 02:39:47;;;;;;;12.55;6.03;;;18.90;79.20;;;;;;4960427;28;20555;-93
2023/08/18 02:42:14;;;;;;;10.27;5.72;;;18.90;79.40;;;;;;4960044;28;20053;-93
2023/08/18 02:44:41;;;;;;;11.90;5.95;;;18.90;79.40;;;;;;4959907;28;20051;-92
2023/08/18 02:47:09;;;;;;;14.82;6.78;;;18.90;79.20;;;;;;4959995;28;20073;-93
2023/08/18 02:49:37;;;;;;;12.00;6.10;;;18.80;79.10;;;;;;4960260;28;20066;-92
2023/08/18 02:52:04;;;;;;;11.70;6.28;;;18.80;79.50;;;;;;4960057;28;20043;-93
2023/08/18 02:54:31;;;;;;;10.95;6.15;;;18.70;79.80;;;;;;4943920;28;20043;-93
2023/08/18 02:56:59;;;;;;;14.07;5.93;;;18.70;80.00;;;;;;4960306;28;20460;-93
2023/08/18 02:59:27;;;;;;;12.07;6.90;;;18.70;79.90;;;;;;4959526;28;20046;-92
2023/08/18 03:01:54;;;;;;;11.10;6.90;;;18.70;80.20;;;;;;4959896;28;20089;-92
2023/08/18 03:04:22;;;;;;;12.07;6.75;;;18.60;80.40;;;;;;4944279;28;20555;-94
2023/08/18 03:06:49;;;;;;;13.25;7.13;;;18.60;80.60;;;;;;4959863;28;20451;-90
2023/08/18 03:09:16;;;;;;;10.52;6.35;;;18.60;80.60;;;;;;4943318;28;20054;-91
2023/08/18 03:11:43;;;;;;;11.93;6.85;;;18.50;80.90;;;;;;4959288;28;20489;-90
2023/08/18 03:14:12;;;;;;;12.33;7.00;;;18.60;81.00;;;;;;4959434;28;20058;-90
2023/08/18 03:16:39;;;;;;;10.82;6.78;;;18.50;81.20;;;;;;4956328;28;20043;-91
2023/08/18 03:19:06;;;;;;;11.23;6.85;;;18.50;81.20;;;;;;4940757;29;20110;-90
2023/08/18 03:21:34;;;;;;;10.57;6.80;;;18.40;81.50;;;;;;4940113;29;20139;-90
2023/08/18 03:24:01;;;;;;;14.73;6.57;;;18.40;81.70;;;;;;4939906;29;20098;-90
2023/08/18 03:26:28;;;;;;;11.23;5.93;;;18.40;81.90;;;;;;4956207;29;20074;-90
2023/08/18 03:28:57;;;;;;;10.13;5.80;;;18.30;81.80;;;;;;4940297;28;20137;-90
2023/08/18 03:31:24;;;;;;;11.45;7.32;;;18.40;81.90;;;;;;4970833;28;20047;-90
2023/08/18 03:33:51;;;;;;;10.82;6.47;;;18.40;81.90;;;;;;4955560;29;20047;-90
2023/08/18 03:36:20;;;;;;;11.43;6.47;;;18.30;81.90;;;;;;4958829;28;20058;-90
2023/08/18 03:38:48;;;;;;;13.87;6.73;;;18.30;82.00;;;;;;4959013;28;20093;-90
2023/08/18 03:41:18;;;;;;;11.63;6.13;;;18.30;82.20;;;;;;4955451;29;20039;-89
2023/08/18 03:43:45;;;;;;;15.10;6.55;;;18.30;82.30;;;;;;4965460;28;20046;-90
2023/08/18 03:46:26;;;;;;;12.32;6.47;;;18.20;82.30;;;;;;4974826;28;20518;-90
2023/08/18 03:48:56;;;;;;;11.45;6.90;;;18.20;82.40;;;;;;4959185;28;20043;-89
2023/08/18 03:51:23;;;;;;;11.33;6.80;;;18.20;82.40;;;;;;4958626;28;20054;-90
2023/08/18 03:53:50;;;;;;;11.02;6.43;;;18.30;82.10;;;;;;4958460;28;20092;-91
2023/08/18 03:56:17;;;;;;;12.30;6.60;;;18.30;82.00;;;;;;4974620;28;20492;-90
2023/08/18 03:58:44;;;;;;;12.57;6.18;;;18.30;82.00;;;;;;4974716;28;20082;-91
2023/08/18 04:01:12;;;;;;;12.52;7.00;;;18.30;82.00;;;;;;4958870;28;20045;-89
2023/08/18 04:03:42;;;;;;;11.50;6.50;;;18.30;82.10;;;;;;4972521;28;20043;-87
2023/08/18 04:06:12;;;;;;;9.57;5.60;;;18.30;82.10;;;;;;4951230;28;20046;-90
2023/08/18 04:08:42;;;;;;;10.45;5.80;;;18.40;81.90;;;;;;4969546;28;20055;-88
2023/08/18 04:11:10;;;;;;;10.82;6.00;;;18.50;81.50;;;;;;4950323;29;20047;-87
2023/08/18 04:13:37;;;;;;;13.02;6.90;;;18.50;81.40;;;;;;4947533;28;20051;-87
2023/08/18 04:16:04;;;;;;;10.23;5.93;;;18.60;81.30;;;;;;4957625;28;20046;-87
2023/08/18 04:18:32;;;;;;;10.52;6.10;;;18.50;81.40;;;;;;4959888;28;20117;-87
2023/08/18 04:20:59;;;;;;;14.32;6.07;;;18.60;81.30;;;;;;4955550;29;20049;-92
2023/08/18 04:23:28;;;;;;;11.40;5.90;;;18.60;81.20;;;;;;4959044;28;20043;-91
2023/08/18 04:25:56;;;;;;;10.60;6.07;;;18.60;81.10;;;;;;4951855;28;20047;-89
2023/08/18 04:28:23;;;;;;;11.87;6.10;;;18.60;81.20;;;;;;4957796;28;20051;-87
2023/08/18 04:30:50;;;;;;;11.02;6.25;;;18.60;81.30;;;;;;4973848;28;20046;-89
2023/08/18 04:33:26;;;;;;;12.43;6.35;;;18.60;81.30;;;;;;4958407;28;20101;-89
2023/08/18 04:35:55;;;;;;;10.80;6.03;;;18.70;81.30;;;;;;4958155;28;20047;-89
2023/08/18 04:38:22;;;;;;;10.90;5.53;;;18.70;81.40;;;;;;4956891;28;20053;-89
2023/08/18 04:40:59;;;;;;;11.87;6.10;;;18.70;81.20;;;;;;4954797;29;20413;-89
2023/08/18 04:43:27;;;;;;;9.82;5.60;;;18.80;81.20;;;;;;4965394;28;20047;-89
2023/08/18 04:45:54;;;;;;;11.80;5.25;;;18.70;81.30;;;;;;4938911;29;20058;-89
2023/08/18 04:48:23;;;;;;;9.98;5.60;;;18.70;81.40;;;;;;4969205;28;20043;-89
2023/08/18 04:50:50;;;;;;;10.23;5.63;;;18.80;81.50;;;;;;4955147;29;20039;-89
2023/08/18 04:53:17;;;;;;;13.37;5.67;;;18.80;81.60;;;;;;4938982;29;20050;-89
2023/08/18 04:55:45;;;;;;;11.23;6.13;;;18.90;81.40;;;;;;4938693;29;20098;-89
2023/08/18 04:58:13;;;;;;;9.85;6.00;;;19.10;81.20;;;;;;4938949;29;20130;-89
2023/08/18 05:00:44;;;;;;;10.65;5.97;;;19.10;81.30;;;;;;4938768;29;20050;-90
2023/08/18 05:03:13;;;;;;;11.60;5.47;;;19.10;81.00;;;;;;4939049;29;20051;-89
2023/08/18 05:05:57;;;;;;;10.50;5.70;;;19.10;80.80;;;;;;4927474;28;20059;-89
2023/08/18 05:08:25;;;;;;;11.80;5.60;;;19.20;80.40;;;;;;4957774;28;20501;-90
2023/08/18 05:10:52;;;;;;;11.65;5.70;;;19.20;80.60;;;;;;4957543;28;20085;-89
2023/08/18 05:13:19;;;;;;;10.70;5.32;;;19.10;80.50;;;;;;4958050;28;20050;-89
2023/08/18 05:15:46;;;;;;;9.73;5.22;;;19.20;80.70;;;;;;4949708;28;20062;-89
2023/08/18 05:18:13;;;;;;;11.33;6.30;;;19.20;80.40;;;;;;4941227;28;20050;-88
2023/08/18 05:20:40;;;;;;;8.88;5.18;;;19.30;80.60;;;;;;4949982;29;20040;-88
2023/08/18 05:23:07;;;;;;;10.18;5.80;;;19.40;80.90;;;;;;4938382;29;20051;-89
2023/08/18 05:25:35;;;;;;;9.77;5.45;;;19.60;80.40;;;;;;4957205;28;20047;-89
2023/08/18 05:28:02;;;;;;;9.63;5.40;;;19.60;79.70;;;;;;4942501;28;20082;-88
2023/08/18 05:30:29;;;;;;;11.33;5.60;;;19.70;79.30;;;;;;4956434;28;20421;-88
2023/08/18 05:32:56;;;;;;;10.80;5.60;;;19.80;79.50;;;;;;4954754;28;20059;-88
2023/08/18 05:35:23;;;;;;;12.38;5.75;;;19.90;79.10;;;;;;4956880;28;20066;-88
2023/08/18 05:37:50;;;;;;;13.38;6.97;;;20.10;79.00;;;;;;4964761;28;20051;-89
2023/08/18 05:40:17;;;;;;;12.45;6.55;;;20.20;79.30;;;;;;4958558;28;20035;-89
2023/08/18 05:42:44;;;;;;;12.40;6.83;;;20.30;78.30;;;;;;4971517;28;20493;-88
2023/08/18 05:45:11;;;;;;;13.55;6.18;;;20.40;77.90;;;;;;4944311;29;20078;-89
2023/08/18 05:47:38;;;;;;;17.67;6.18;;;20.50;77.70;;;;;;4941587;29;20047;-88
2023/08/18 05:50:07;;;;;;;11.27;5.90;;;20.50;77.60;;;;;;4949774;28;20134;-88
2023/08/18 05:52:34;;;;;;;13.50;6.15;;;20.60;77.50;;;;;;4952686;29;20047;-89
2023/08/18 05:55:01;;;;;;;12.37;6.50;;;20.70;76.90;;;;;;4962610;28;20130;-89
2023/08/18 05:57:28;;;;;;;15.10;7.43;;;20.80;76.50;;;;;;4943798;28;20071;-89
2023/08/18 05:59:55;;;;;;;20.00;7.32;;;20.90;76.30;;;;;;4957274;28;20449;-89
2023/08/18 06:02:22;;;;;;;15.75;6.72;;;21.10;76.00;;;;;;4941298;29;20047;-88
2023/08/18 06:04:49;;;;;;;15.30;7.28;;;21.10;75.60;;;;;;4946714;28;20047;-89
2023/08/18 06:07:16;;;;;;;17.83;8.33;;;21.30;75.10;;;;;;4960305;28;20047;-89
2023/08/18 06:09:44;;;;;;;13.75;6.82;;;21.30;75.80;;;;;;4967869;28;20057;-89
2023/08/18 06:12:11;;;;;;;15.05;6.53;;;21.40;75.80;;;;;;4947502;29;20047;-90
2023/08/18 06:14:38;;;;;;;14.88;6.50;;;21.60;75.50;;;;;;4965276;28;20051;-89
2023/08/18 06:17:05;;;;;;;13.55;7.28;;;21.70;75.20;;;;;;4958741;28;20387;-89
2023/08/18 06:19:32;;;;;;;18.73;6.70;;;21.80;75.30;;;;;;4970678;28;20043;-89
2023/08/18 06:21:59;;;;;;;13.23;5.93;;;21.90;74.50;;;;;;4940787;29;20043;-89
2023/08/18 06:24:26;;;;;;;11.75;5.15;;;22.00;74.30;;;;;;4940844;29;20081;-89
2023/08/18 06:26:53;;;;;;;10.60;5.07;;;22.10;73.10;;;;;;4956786;28;20050;-89
2023/08/18 06:29:20;;;;;;;11.95;5.03;;;22.30;73.10;;;;;;4959586;28;20074;-89
2023/08/18 06:31:47;;;;;;;11.63;5.20;;;22.40;72.80;;;;;;4949790;29;20482;-89
2023/08/18 06:34:14;;;;;;;12.55;6.07;;;22.50;72.70;;;;;;4940665;29;20509;-89
2023/08/18 06:36:41;;;;;;;11.35;5.45;;;22.50;72.30;;;;;;4944631;28;20039;-90
2023/08/18 06:39:08;;;;;;;12.85;5.13;;;22.50;72.10;;;;;;4971487;28;20066;-89
2023/08/18 06:41:37;;;;;;;9.85;4.88;;;22.50;72.10;;;;;;4950879;29;20051;-89
2023/08/18 06:44:04;;;;;;;10.27;5.10;;;22.50;72.60;;;;;;4956644;29;20043;-89
2023/08/18 06:46:31;;;;;;;10.93;5.60;;;22.60;73.00;;;;;;4941097;29;20043;-90
2023/08/18 06:48:58;;;;;;;9.20;5.00;;;22.70;72.60;;;;;;4940508;29;20061;-89
2023/08/18 06:51:25;;;;;;;13.68;6.15;;;22.80;71.90;;;;;;4944762;28;20047;-89
2023/08/18 06:53:53;;;;;;;12.65;5.97;;;23.00;73.30;;;;;;4953261;28;20526;-89
2023/08/18 06:56:20;;;;;;;10.03;6.20;;;23.00;74.40;;;;;;4956803;28;20050;-88
2023/08/18 06:58:47;;;;;;;10.77;6.10;;;22.90;73.60;;;;;;4950397;29;20545;-89
2023/08/18 07:01:14;;;;;;;11.38;6.55;;;22.90;73.30;;;;;;4940258;29;20043;-89
2023/08/18 07:03:41;;;;;;;12.48;6.15;;;22.90;73.20;;;;;;4962673;28;20049;-89
2023/08/18 07:06:09;;;;;;;11.13;6.15;;;22.80;73.50;;;;;;4953947;28;20489;-89
2023/08/18 07:08:36;;;;;;;12.57;6.43;;;22.80;73.70;;;;;;4946534;29;20051;-89
2023/08/18 07:11:03;;;;;;;10.60;6.43;;;22.70;74.00;;;;;;4956147;29;20043;-89
2023/08/18 07:13:30;;;;;;;11.90;6.30;;;22.70;74.10;;;;;;4970355;28;20050;-89
2023/08/18 07:15:57;;;;;;;13.73;6.95;;;22.70;74.70;;;;;;4957498;28;20043;-89
2023/08/18 07:18:24;;;;;;;12.27;6.55;;;22.70;74.60;;;;;;4959400;28;20501;-89
2023/08/18 07:20:52;;;;;;;12.10;6.67;;;22.80;74.30;;;;;;4939675;29;20437;-89
2023/08/18 07:23:19;;;;;;;12.80;6.20;;;22.80;74.10;;;;;;4940030;29;20409;-89
2023/08/18 07:25:47;;;;;;;11.15;6.95;;;23.00;73.70;;;;;;4944150;28;20046;-89
2023/08/18 07:28:14;;;;;;;15.18;7.28;;;23.20;74.90;;;;;;4959034;28;20499;-89
2023/08/18 07:30:41;;;;;;;12.50;6.85;;;23.30;72.80;;;;;;4943897;28;20051;-89
2023/08/18 07:33:08;;;;;;;12.40;7.57;;;23.20;73.10;;;;;;4960492;28;20042;-90
2023/08/18 07:35:35;;;;;;;12.98;6.75;;;23.10;73.20;;;;;;4946721;28;20134;-89
2023/08/18 07:38:02;;;;;;;12.65;7.38;;;23.20;74.30;;;;;;4956646;28;20085;-89
2023/08/18 07:40:29;;;;;;;12.77;8.48;;;23.30;72.80;;;;;;4948928;28;20561;-89
2023/08/18 07:42:56;;;;;;;14.27;7.38;;;23.30;72.70;;;;;;4956149;28;20058;-90
2023/08/18 07:45:24;;;;;;;14.30;7.70;;;23.20;72.80;;;;;;4958634;28;20171;-89
2023/08/18 07:47:51;;;;;;;13.95;7.50;;;23.10;73.10;;;;;;4967094;28;20066;-89
2023/08/18 07:50:19;;;;;;;14.52;7.30;;;23.00;73.50;;;;;;4940727;28;20043;-90
2023/08/18 07:52:46;;;;;;;14.25;7.68;;;23.00;73.50;;;;;;4957741;28;20133;-90
2023/08/18 07:55:13;;;;;;;13.00;6.90;;;23.10;73.00;;;;;;4955500;28;20047;-89
2023/08/18 07:57:40;;;;;;;10.67;6.90;;;23.00;73.10;;;;;;4952179;28;20595;-89
2023/08/18 08:00:13;;;;;;;11.82;6.93;;;23.10;72.60;;;;;;4947700;29;20115;-90
2023/08/18 08:02:40;;;;;;;13.02;6.78;;;23.30;72.10;;;;;;4972490;28;20113;-90
2023/08/18 08:05:08;;;;;;;10.98;7.30;;;23.50;71.90;;;;;;4958479;28;20055;-89
2023/08/18 08:07:35;;;;;;;11.63;6.50;;;23.50;71.50;;;;;;4972226;28;20572;-89
2023/08/18 08:10:03;;;;;;;10.93;7.10;;;23.60;70.90;;;;;;4940592;29;20081;-89
2023/08/18 08:12:32;;;;;;;11.95;6.68;;;23.80;69.80;;;;;;4947324;28;20055;-90
2023/08/18 08:15:00;;;;;;;10.60;6.10;;;24.00;69.70;;;;;;4958268;28;20047;-90
2023/08/18 08:17:29;;;;;;;12.38;6.25;;;24.10;70.20;;;;;;4966089;28;20061;-90
2023/08/18 08:19:58;;;;;;;11.27;6.28;;;24.10;68.90;;;;;;4947094;29;20457;-89
2023/08/18 08:22:25;;;;;;;12.23;6.13;;;24.20;68.70;;;;;;4944212;28;20043;-90
2023/08/18 08:24:54;;;;;;;13.18;6.10;;;24.20;68.40;;;;;;4944543;29;20058;-89
2023/08/18 08:27:22;;;;;;;12.73;6.63;;;24.20;69.60;;;;;;4965687;28;20501;-90
2023/08/18 08:29:49;;;;;;;13.65;7.20;;;24.20;68.70;;;;;;4939054;29;20106;-90
2023/08/18 08:32:16;;;;;;;13.07;6.90;;;24.20;68.80;;;;;;4961064;28;20455;-90
2023/08/18 08:34:51;;;;;;;15.10;9.10;;;24.20;68.90;;;;;;4950894;28;20445;-90
2023/08/18 08:37:18;;;;;;;11.45;7.22;;;24.30;69.10;;;;;;4949958;29;20061;-90
2023/08/18 08:39:45;;;;;;;13.88;7.70;;;24.30;69.00;;;;;;4940913;28;20047;-90
2023/08/18 08:42:13;;;;;;;13.52;7.88;;;24.50;69.20;;;;;;4958166;28;20062;-90
2023/08/18 08:44:42;;;;;;;14.85;7.50;;;24.60;68.00;;;;;;4938886;29;20051;-89
2023/08/18 08:47:10;;;;;;;13.00;8.33;;;24.80;67.20;;;;;;4951917;28;20113;-89
2023/08/18 08:49:46;;;;;;;15.82;8.23;;;24.90;66.90;;;;;;4974137;28;20051;-89
2023/08/18 08:52:16;;;;;;;13.15;8.52;;;25.00;67.60;;;;;;4944869;29;20055;-89
2023/08/18 08:54:56;;;;;;;14.32;7.85;;;25.20;67.70;;;;;;4954646;29;20047;-89
2023/08/18 08:57:23;;;;;;;15.45;8.88;;;25.40;67.50;;;;;;4954935;28;20047;-89
2023/08/18 08:59:51;;;;;;;16.47;9.33;;;25.40;67.40;;;;;;4958051;28;20521;-90
2023/08/18 09:02:18;;;;;;;16.10;9.32;;;25.50;67.70;;;;;;4954949;28;20043;-90
2023/08/18 09:04:45;;;;;;;15.30;9.02;;;25.50;67.30;;;;;;4945845;29;20051;-90
2023/08/18 09:07:13;;;;;;;16.17;8.95;;;25.60;67.90;;;;;;4938825;29;20055;-90
2023/08/18 09:09:41;;;;;;;17.35;8.85;;;25.60;66.80;;;;;;4938581;29;20047;-90
2023/08/18 09:12:10;;;;;;;15.27;8.77;;;25.50;65.70;;;;;;4954604;29;20051;-90
2023/08/18 09:14:41;;;;;;;17.38;8.93;;;25.50;66.50;;;;;;4940597;29;20043;-90
2023/08/18 09:17:08;;;;;;;15.80;8.38;;;25.40;66.40;;;;;;4942032;29;20051;-90
2023/08/18 09:19:35;;;;;;;13.40;8.13;;;25.30;65.80;;;;;;4942256;29;20043;-90
2023/08/18 09:22:04;;;;;;;13.73;8.10;;;25.20;66.30;;;;;;4958158;29;20130;-90
2023/08/18 09:24:34;;;;;;;14.77;7.40;;;25.20;67.60;;;;;;4942194;29;20047;-90
2023/08/18 09:27:09;;;;;;;16.42;8.32;;;25.30;66.40;;;;;;4942179;29;20051;-89
2023/08/18 09:29:37;;;;;;;13.82;7.00;;;25.40;66.30;;;;;;4941889;29;20079;-89
2023/08/18 09:32:06;;;;;;;13.50;7.47;;;25.50;66.00;;;;;;4957777;29;20065;-90
2023/08/18 09:34:41;;;;;;;15.18;7.22;;;25.60;66.80;;;;;;4963326;28;20138;-90
2023/08/18 09:37:08;;;;;;;14.03;6.87;;;25.80;67.20;;;;;;4960969;28;20035;-90
2023/08/18 09:39:35;;;;;;;14.90;6.97;;;26.00;66.70;;;;;;4961142;28;20042;-90
2023/08/18 09:42:06;;;;;;;12.05;7.45;;;26.10;67.00;;;;;;4977207;28;20043;-90
2023/08/18 09:44:33;;;;;;;14.38;6.55;;;26.10;66.50;;;;;;4947659;29;20111;-90
2023/08/18 09:47:03;;;;;;;14.75;6.88;;;26.10;66.20;;;;;;4942133;29;20054;-90
2023/08/18 09:49:36;;;;;;;11.50;6.63;;;26.10;66.90;;;;;;4941736;29;20051;-90
2023/08/18 09:52:04;;;;;;;11.98;6.10;;;26.10;66.80;;;;;;4942060;29;20047;-90
2023/08/18 09:54:47;;;;;;;12.07;6.70;;;26.20;66.40;;;;;;4941685;29;20048;-90
2023/08/18 09:57:29;;;;;;;11.20;6.30;;;26.30;67.50;;;;;;4974130;28;20504;-90
2023/08/18 09:59:58;;;;;;;11.20;6.38;;;26.30;66.60;;;;;;4958795;28;20081;-90
2023/08/18 10:02:33;;;;;;;12.10;6.90;;;26.30;67.30;;;;;;4941639;29;20413;-90
2023/08/18 10:05:04;;;;;;;12.18;6.70;;;26.40;66.80;;;;;;4957227;28;20429;-90
2023/08/18 10:07:32;;;;;;;13.05;6.88;;;26.60;67.20;;;;;;4941510;29;20062;-90
2023/08/18 10:10:00;;;;;;;12.48;6.60;;;26.60;66.40;;;;;;4941531;29;20499;-90
2023/08/18 10:12:27;;;;;;;11.00;5.93;;;26.70;65.60;;;;;;4941341;29;20051;-90
2023/08/18 10:14:56;;;;;;;11.57;6.63;;;26.80;65.00;;;;;;4957660;29;20054;-90
2023/08/18 10:17:24;;;;;;;15.38;6.72;;;26.80;64.90;;;;;;4941181;29;20062;-90
2023/08/18 10:19:54;;;;;;;12.18;6.75;;;26.90;64.80;;;;;;4941054;29;20047;-90
2023/08/18 10:22:27;;;;;;;14.00;6.43;;;26.90;63.20;;;;;;4941204;29;20051;-90
2023/08/18 10:24:55;;;;;;;12.77;6.57;;;27.00;63.70;;;;;;4940571;28;20075;-89
2023/08/18 10:27:29;;;;;;;12.77;6.40;;;27.10;64.10;;;;;;4940888;29;20082;-90
2023/08/18 10:29:59;;;;;;;12.63;6.70;;;27.20;64.80;;;;;;4940891;29;20055;-90
2023/08/18 10:32:27;;;;;;;11.63;7.18;;;27.20;63.50;;;;;;4940846;29;20055;-90
2023/08/18 10:35:18;;;;;;;12.75;6.68;;;27.20;63.50;;;;;;4940738;29;20493;-90
2023/08/18 10:37:47;;;;;;;11.30;5.97;;;27.20;63.30;;;;;;4951546;28;20046;-90
2023/08/18 10:40:29;;;;;;;13.97;7.47;;;27.40;63.10;;;;;;4959856;28;20050;-90
2023/08/18 10:43:01;;;;;;;13.48;6.80;;;27.40;62.30;;;;;;4941741;28;20047;-89
2023/08/18 10:45:29;;;;;;;14.70;7.05;;;27.60;62.70;;;;;;4956385;29;20459;-89
2023/08/18 10:48:03;;;;;;;12.88;6.97;;;27.70;62.70;;;;;;4940491;29;20047;-89
2023/08/18 10:50:34;;;;;;;11.60;6.95;;;27.70;63.60;;;;;;4949732;28;20378;-89
2023/08/18 10:53:03;;;;;;;12.37;7.03;;;27.70;61.90;;;;;;4946240;29;20057;-90
2023/08/18 10:55:31;;;;;;;12.80;6.35;;;27.70;61.10;;;;;;4940404;29;20493;-90
2023/08/18 10:57:59;;;;;;;10.52;5.43;;;27.90;61.20;;;;;;4940553;29;20078;-90
2023/08/18 11:00:30;;;;;;;11.13;6.00;;;28.10;60.60;;;;;;4940385;29;20047;-90
2023/08/18 11:02:58;;;;;;;10.55;6.00;;;28.20;61.10;;;;;;4961082;28;20097;-90
2023/08/18 11:05:25;;;;;;;11.17;6.00;;;28.10;58.70;;;;;;4959496;28;20055;-90
2023/08/18 11:07:52;;;;;;;12.88;6.60;;;28.10;58.90;;;;;;4974591;28;20055;-89
2023/08/18 11:10:21;;;;;;;13.32;5.78;;;28.10;59.70;;;;;;4954918;28;20449;-90
2023/08/18 11:12:54;;;;;;;12.57;5.68;;;28.20;57.10;;;;;;4959513;28;20061;-90
2023/08/18 11:15:23;;;;;;;15.48;6.05;;;28.10;58.70;;;;;;4959147;28;20054;-90
2023/08/18 11:17:51;;;;;;;10.87;6.27;;;28.10;59.50;;;;;;4959078;28;20055;-89
2023/08/18 11:20:18;;;;;;;15.25;6.53;;;28.10;58.30;;;;;;4959291;28;20105;-90
2023/08/18 11:22:48;;;;;;;13.13;6.63;;;28.10;57.80;;;;;;4958865;28;20050;-90
2023/08/18 11:25:16;;;;;;;13.23;6.13;;;28.10;57.60;;;;;;4959218;28;20046;-90
2023/08/18 11:27:45;;;;;;;13.48;5.75;;;28.30;58.10;;;;;;4958984;28;20117;-89
2023/08/18 11:30:13;;;;;;;11.70;5.83;;;28.20;56.00;;;;;;4959158;28;20047;-90
2023/08/18 11:32:41;;;;;;;11.60;6.15;;;28.10;57.20;;;;;;4959057;28;20047;-90
2023/08/18 11:35:10;;;;;;;11.45;6.03;;;28.10;56.80;;;;;;4959151;28;20053;-90
2023/08/18 11:37:45;;;;;;;15.25;6.75;;;28.10;57.70;;;;;;4958058;28;20043;-90
2023/08/18 11:40:20;;;;;;;13.07;5.88;;;28.20;57.40;;;;;;4939448;29;20075;-89
2023/08/18 11:42:52;;;;;;;11.33;6.00;;;28.40;56.90;;;;;;4940265;28;20050;-90
2023/08/18 11:45:24;;;;;;;13.63;6.60;;;28.40;56.40;;;;;;4945885;29;20437;-90
2023/08/18 11:48:03;;;;;;;12.55;6.60;;;28.30;56.80;;;;;;4949402;28;20074;-90
2023/08/18 11:50:36;;;;;;;11.63;6.45;;;28.00;56.40;;;;;;4958867;28;20046;-90
2023/08/18 11:53:05;;;;;;;11.38;5.90;;;27.90;57.30;;;;;;4958751;28;20141;-90
2023/08/18 11:55:35;;;;;;;14.80;6.40;;;27.70;57.10;;;;;;4957430;28;20054;-90
2023/08/18 11:58:14;;;;;;;12.57;6.18;;;27.60;56.80;;;;;;4950546;28;20061;-89
2023/08/18 12:00:48;;;;;;;11.57;6.10;;;28.00;57.00;;;;;;4974455;28;20043;-90
2023/08/18 12:03:26;;;;;;;11.65;6.20;;;28.40;56.50;;;;;;4947615;29;20058;-90
2023/08/18 12:05:58;;;;;;;11.02;5.60;;;28.90;57.40;;;;;;4971057;28;20058;-89
2023/08/18 12:08:27;;;;;;;9.73;5.70;;;29.20;57.00;;;;;;4958388;28;20047;-90
2023/08/18 12:10:57;;;;;;;10.93;5.95;;;29.40;55.60;;;;;;4955179;29;20468;-89
2023/08/18 12:13:30;;;;;;;10.13;5.68;;;29.20;53.80;;;;;;4946767;28;20081;-89
2023/08/18 12:15:57;;;;;;;11.95;5.90;;;29.10;56.50;;;;;;4966176;28;20057;-89
2023/08/18 12:18:25;;;;;;;10.48;5.40;;;29.00;55.20;;;;;;4958282;28;20051;-89
2023/08/18 12:20:52;;;;;;;10.13;5.87;;;28.90;54.00;;;;;;4957927;28;20054;-90
2023/08/18 12:23:19;;;;;;;8.48;5.50;;;28.90;56.70;;;;;;4957953;28;20042;-90
2023/08/18 12:25:48;;;;;;;11.48;5.68;;;28.90;53.80;;;;;;4941138;29;20065;-90
2023/08/18 12:28:15;;;;;;;9.77;5.22;;;28.90;54.30;;;;;;4938956;29;20050;-90
2023/08/18 12:30:43;;;;;;;8.23;5.47;;;28.90;55.60;;;;;;4954731;28;20086;-90
2023/08/18 12:33:10;;;;;;;9.83;5.37;;;28.80;54.40;;;;;;4938832;29;20520;-90
2023/08/18 12:35:37;;;;;;;9.43;5.47;;;28.90;55.50;;;;;;4955864;28;20051;-90
2023/08/18 12:38:04;;;;;;;10.55;4.88;;;28.80;54.80;;;;;;4938731;29;20071;-90
2023/08/18 12:40:31;;;;;;;9.05;5.47;;;28.60;54.90;;;;;;4953737;28;20404;-90
2023/08/18 12:42:58;;;;;;;13.23;5.53;;;28.50;55.00;;;;;;4942456;28;20061;-90
2023/08/18 12:45:26;;;;;;;10.23;5.67;;;28.50;55.90;;;;;;4958243;28;20089;-90